.
WxDataArchive / Data Records for 2006-07-19
2006-07-18 July 2006 2006-07-20

Data Records for Wednesday, 19 July 2006

Time	Temp	Chill	HIndex	Humid	Dewpt	 Wind 	HiWind	WindDir	Rain 	Barom 
-----	----	-----	------	-----	-----	------	------	-------	-----	----- 
00:00	71.3	71.3	71.3	88	67.6	0	0	---	0.00	30.032 
00:05	71.3	71.3	71.3	88	67.6	0	1	90	0.00	30.032 
00:10	71.3	71.3	71.3	88	67.6	0	1	90	0.00	30.032 
00:15	71.3	71.3	71.3	88	67.6	0	0	---	0.00	30.042 
00:20	71.3	71.3	71.3	88	67.6	0	0	---	0.00	30.042 
00:25	71.3	71.3	71.3	88	67.6	0	1	90	0.00	30.042 
00:30	71.3	71.3	71.3	87	67.2	0	1	90	0.00	30.041 
00:35	71.6	71.6	71.6	85	66.8	0	2	90	0.00	30.041 
00:40	71.8	71.8	71.8	84	66.7	0	2	90	0.00	30.041 
00:45	72.0	72.0	72.0	84	66.9	0	2	90	0.00	30.039 
00:50	72.0	72.0	72.0	83	66.5	1	3	90	0.00	30.039 
00:55	72.0	72.0	72.0	83	66.5	1	3	90	0.00	30.039 
01:00	71.8	71.8	71.8	83	66.3	0	2	90	0.00	30.042 
01:05	71.6	71.6	71.6	83	66.2	0	2	90	0.00	30.042 
01:10	71.5	71.5	71.5	84	66.4	0	2	90	0.00	30.042 
01:15	71.3	71.3	71.3	84	66.2	0	0	---	0.00	30.045 
01:20	71.1	71.1	71.1	84	66.0	0	1	90	0.00	30.045 
01:25	70.9	70.9	70.9	85	66.2	0	1	90	0.00	30.045 
01:30	70.9	70.9	70.9	85	66.2	0	2	90	0.00	30.049 
01:35	71.1	71.1	71.1	84	66.0	1	2	90	0.00	30.049 
01:40	71.1	71.1	71.1	84	66.0	0	1	90	0.00	30.049 
01:45	71.1	71.1	71.1	83	65.7	1	3	90	0.00	30.046 
01:50	71.1	71.1	71.1	82	65.3	1	3	90	0.00	30.046 
01:55	71.1	71.1	71.1	82	65.3	1	3	90	0.00	30.046 
02:00	70.9	70.9	70.9	81	64.8	2	4	90	0.00	30.047 
02:05	70.9	70.9	70.9	81	64.8	2	4	90	0.00	30.047 
02:10	70.8	70.8	70.8	82	65.0	1	3	90	0.00	30.047 
02:15	70.4	70.4	70.4	82	64.6	1	4	90	0.00	30.044 
02:20	70.3	70.3	70.3	82	64.5	1	4	90	0.00	30.044 
02:25	70.3	70.3	70.3	83	64.9	2	6	90	0.00	30.044 
02:30	69.9	69.9	69.9	84	64.8	1	3	90	0.00	30.041 
02:35	69.8	69.8	69.8	84	64.7	1	3	90	0.00	30.041 
02:40	69.6	69.6	69.6	84	64.5	1	3	90	0.00	30.041 
02:45	69.4	69.4	69.4	84	64.3	1	3	90	0.00	30.044 
02:50	69.4	69.4	69.4	84	64.3	1	3	90	0.00	30.044 
02:55	69.3	69.3	69.3	84	64.2	1	4	90	0.00	30.044 
03:00	69.1	69.1	69.1	84	64.1	1	3	68	0.00	30.049 
03:05	68.9	68.9	68.9	84	63.9	1	1	68	0.00	30.049 
03:10	68.8	68.8	68.8	85	64.1	1	4	68	0.00	30.049 
03:15	68.6	68.6	68.6	85	63.9	0	2	68	0.00	30.046 
03:20	68.4	68.4	68.4	86	64.0	1	2	68	0.00	30.046 
03:25	68.3	68.3	68.3	86	63.9	0	2	68	0.00	30.046 
03:30	68.1	68.1	68.1	87	64.1	0	2	68	0.00	30.048 
03:35	68.1	68.1	68.1	87	64.1	1	3	68	0.00	30.048 
03:40	68.1	68.1	68.1	87	64.1	1	4	90	0.00	30.048 
03:45	68.1	68.1	68.1	86	63.7	1	3	90	0.00	30.050 
03:50	68.3	68.3	68.3	86	63.9	1	3	90	0.00	30.050 
03:55	68.3	68.3	68.3	86	63.9	0	2	90	0.00	30.050 
04:00	68.3	68.3	68.3	87	64.3	0	1	90	0.00	30.050 
04:05	68.3	68.3	68.3	86	63.9	1	2	90	0.00	30.050 
04:10	68.3	68.3	68.3	86	63.9	1	3	90	0.00	30.050 
04:15	68.1	68.1	68.1	86	63.7	1	3	90	0.00	30.048 
04:20	68.1	68.1	68.1	86	63.7	1	3	90	0.00	30.048 
04:25	68.1	68.1	68.1	86	63.7	1	3	90	0.00	30.048 
04:30	67.9	67.9	67.9	86	63.5	1	2	90	0.00	30.049 
04:35	67.8	67.8	67.8	86	63.5	1	2	90	0.00	30.049 
04:40	67.8	67.8	67.8	86	63.5	1	4	90	0.00	30.049 
04:45	67.6	67.6	67.6	86	63.3	1	3	90	0.00	30.054 
04:50	67.6	67.6	67.6	87	63.6	1	3	90	0.00	30.054 
04:55	67.4	67.4	67.4	87	63.4	1	2	90	0.00	30.054 
05:00	67.3	67.3	67.3	88	63.6	1	2	90	0.00	30.063 
05:05	67.1	67.1	67.1	88	63.4	0	3	90	0.00	30.063 
05:10	67.1	67.1	67.1	88	63.4	0	1	90	0.00	30.063 
05:15	67.3	67.3	67.3	88	63.6	0	2	90	0.00	30.065 
05:20	67.3	67.3	67.3	88	63.6	2	6	90	0.00	30.065 
05:25	67.4	67.4	67.4	88	63.7	1	3	90	0.00	30.065 
05:30	67.3	67.3	67.3	88	63.6	0	2	90	0.00	30.066 
05:35	67.3	67.3	67.3	88	63.6	1	2	90	0.00	30.066 
05:40	67.1	67.1	67.1	88	63.4	1	3	90	0.00	30.066 
05:45	67.1	67.1	67.1	88	63.4	0	2	90	0.00	30.070 
05:50	66.9	66.9	66.9	88	63.2	0	2	90	0.00	30.070 
05:55	66.8	66.8	66.8	89	63.4	1	3	90	0.00	30.070 
06:00	66.6	66.6	66.6	89	63.3	2	3	90	0.00	30.067 
06:05	66.4	66.4	66.4	89	63.1	2	4	90	0.00	30.067 
06:10	66.4	66.4	66.4	89	63.1	1	4	90	0.00	30.067 
06:15	66.3	66.3	66.3	89	63.0	1	3	90	0.00	30.070 
06:20	66.1	66.1	66.1	89	62.8	1	4	112	0.00	30.070 
06:25	66.1	66.1	66.1	89	62.8	1	3	90	0.00	30.070 
06:30	66.1	66.1	66.1	89	62.8	1	2	90	0.00	30.074 
06:35	66.0	66.0	66.0	89	62.7	0	2	90	0.00	30.074 
06:40	65.8	65.8	65.8	89	62.5	0	2	90	0.00	30.074 
06:45	65.6	65.6	65.6	90	62.6	0	2	90	0.00	30.072 
06:50	65.6	65.6	65.6	90	62.6	1	3	90	0.00	30.072 
06:55	65.8	65.8	65.8	90	62.8	1	3	90	0.00	30.072 
07:00	65.8	65.8	65.8	90	62.8	0	2	90	0.00	30.077 
07:05	66.0	66.0	66.0	89	62.7	1	2	90	0.00	30.077 
07:10	66.0	66.0	66.0	89	62.7	1	3	90	0.00	30.077 
07:15	66.1	66.1	66.1	89	62.8	1	3	90	0.00	30.082 
07:20	66.3	66.3	66.3	88	62.6	1	2	90	0.00	30.082 
07:25	66.4	66.4	66.4	88	62.7	1	3	90	0.00	30.082 
07:30	66.4	66.4	66.4	88	62.7	1	3	90	0.00	30.084 
07:35	66.8	66.8	66.8	87	62.8	1	4	90	0.00	30.084 
07:40	67.3	67.3	67.3	86	63.0	1	3	90	0.00	30.084 
07:45	67.8	67.8	67.8	85	63.1	0	2	90	0.00	30.085 
07:50	68.3	68.3	68.3	83	62.9	1	3	90	0.00	30.085 
07:55	68.3	68.3	68.3	83	62.9	2	3	90	0.00	30.085 
08:00	68.3	68.3	68.3	84	63.3	1	4	90	0.00	30.089 
08:05	68.1	68.1	68.1	83	62.7	1	2	90	0.00	30.089 
08:10	68.1	68.1	68.1	83	62.7	1	3	90	0.00	30.089 
08:15	68.1	68.1	68.1	83	62.7	1	3	112	0.00	30.095 
08:20	68.3	68.3	68.3	83	62.9	1	4	90	0.00	30.095 
08:25	68.6	68.6	68.6	82	62.9	1	3	90	0.00	30.095 
08:30	68.9	68.9	68.9	81	62.8	1	4	90	0.00	30.097 
08:35	69.3	69.3	69.3	79	62.5	1	3	90	0.00	30.097 
08:40	69.9	69.9	69.9	80	63.4	2	4	90	0.00	30.097 
08:45	70.8	70.8	70.8	77	63.2	2	4	90	0.00	30.096 
08:50	71.1	71.1	71.1	75	62.8	3	9	90	0.00	30.096 
08:55	71.3	71.3	71.3	76	63.3	3	9	90	0.00	30.096 
09:00	71.8	71.8	71.8	73	62.7	2	4	90	0.00	30.089 
09:05	72.0	72.0	72.0	74	63.2	3	9	90	0.00	30.089 
09:10	72.3	72.3	72.3	73	63.1	3	5	90	0.00	30.089 
09:15	72.7	72.7	72.7	72	63.1	3	5	90	0.00	30.095 
09:20	73.2	73.2	73.2	72	63.6	3	7	90	0.00	30.095 
09:25	73.3	73.3	73.3	69	62.5	4	7	90	0.00	30.095 
09:30	73.7	73.7	73.7	69	62.9	3	7	90	0.00	30.092 
09:35	74.0	74.0	74.0	69	63.2	3	6	112	0.00	30.092 
09:40	74.6	74.6	74.6	66	62.5	3	7	112	0.00	30.092 
09:45	74.9	74.9	74.9	67	63.2	3	6	90	0.00	30.090 
09:50	75.1	75.1	77.2	64	62.1	4	7	90	0.00	30.090 
09:55	75.3	75.3	77.4	63	61.8	4	7	90	0.00	30.090 
10:00	75.4	75.4	77.3	66	63.2	3	7	90	0.00	30.086 
10:05	75.8	75.8	77.7	64	62.7	3	7	90	0.00	30.086 
10:10	76.3	76.3	78.2	64	63.2	3	7	90	0.00	30.086 
10:15	76.5	76.5	78.3	63	62.9	3	9	90	0.00	30.082 
10:20	76.8	76.8	78.6	62	62.8	3	7	90	0.00	30.082 
10:25	77.0	77.0	78.8	62	63.0	3	7	90	0.00	30.082 
10:30	77.2	77.2	79.0	61	62.7	4	7	90	0.00	30.087 
10:35	77.2	77.2	78.9	58	61.3	4	7	90	0.00	30.087 
10:40	77.4	77.4	79.1	57	61.0	4	9	90	0.00	30.087 
10:45	77.7	77.7	79.3	57	61.2	3	7	112	0.00	30.087 
10:50	78.1	78.1	79.6	56	61.1	3	6	90	0.00	30.087 
10:55	78.3	78.3	79.7	55	60.8	4	8	90	0.00	30.087 
11:00	78.3	78.3	79.8	57	61.8	4	7	90	0.00	30.093 
11:05	78.6	78.6	80.1	57	62.1	3	7	90	0.00	30.093 
11:10	79.2	79.2	80.6	56	62.1	3	7	90	0.00	30.093 
11:15	79.8	79.8	81.1	55	62.2	2	5	90	0.00	30.099 
11:20	79.9	79.9	81.3	56	62.8	3	10	90	0.00	30.099 
11:25	79.8	79.8	81.0	54	61.7	4	7	90	0.00	30.099 
11:30	79.6	79.6	80.9	55	62.0	4	7	90	0.00	30.097 
11:35	79.4	79.4	80.6	54	61.3	3	7	90	0.00	30.097 
11:40	79.6	79.6	80.8	54	61.5	3	7	90	0.00	30.097 
11:45	79.8	79.8	80.9	53	61.1	4	7	90	0.00	30.089 
11:50	80.3	80.3	81.3	52	61.0	3	7	112	0.00	30.089 
11:55	80.5	80.5	81.5	52	61.2	4	9	90	0.00	30.089 
12:00	80.7	80.7	81.2	48	59.2	3	11	90	0.00	30.080 
12:05	80.7	80.7	81.6	51	60.9	4	8	90	0.00	30.080 
12:10	80.9	80.9	81.8	51	61.0	4	9	90	0.00	30.080 
12:15	80.7	80.7	81.4	50	60.3	4	7	90	0.00	30.077 
12:20	80.9	80.9	81.6	50	60.5	3	12	90	0.00	30.077 
12:25	81.2	81.2	82.1	51	61.3	3	6	90	0.00	30.077 
12:30	81.6	81.6	82.3	50	61.1	4	7	90	0.00	30.063 
12:35	81.8	81.8	82.6	50	61.3	4	7	90	0.00	30.063 
12:40	82.0	82.0	82.9	51	62.1	3	9	90	0.00	30.063 
12:45	82.0	82.0	82.5	48	60.3	4	7	90	0.00	30.059 
12:50	82.4	82.4	83.7	53	63.5	2	5	90	0.00	30.059 
12:55	83.0	83.0	83.9	50	62.4	3	6	90	0.00	30.059 
13:00	83.4	83.4	84.4	50	62.8	2	7	90	0.00	30.056 
13:05	83.0	83.0	83.9	50	62.4	3	6	112	0.00	30.056 
13:10	83.0	83.0	83.5	48	61.3	3	7	90	0.00	30.056 
13:15	83.4	83.4	84.2	49	62.2	3	11	90	0.00	30.046 
13:20	83.0	83.0	84.1	51	63.0	5	10	90	0.00	30.046 
13:25	82.8	82.8	84.0	52	63.3	4	7	90	0.00	30.046 
13:30	82.6	82.6	83.8	52	63.2	5	11	90	0.00	30.029 
13:35	83.0	83.0	83.7	49	61.8	3	6	90	0.00	30.029 
13:40	83.8	83.8	84.7	49	62.6	3	6	90	0.00	30.029 
13:45	83.8	83.8	84.7	49	62.6	4	6	112	0.00	30.027 
13:50	83.8	83.8	84.9	50	63.1	4	7	90	0.00	30.027 
13:55	83.8	83.8	84.7	49	62.6	3	7	90	0.00	30.027 
14:00	84.1	84.1	85.5	51	64.0	3	7	90	0.00	30.033 
14:05	84.3	84.3	85.7	51	64.2	3	8	90	0.00	30.033 
14:10	84.7	84.7	86.3	51	64.5	2	5	90	0.00	30.033 
14:15	85.3	85.3	86.9	50	64.5	2	4	90	0.00	30.040 
14:20	85.5	85.5	87.2	50	64.7	2	4	45	0.00	30.040 
14:25	85.5	85.5	87.2	50	64.7	2	6	90	0.00	30.040 
14:30	85.3	85.3	86.9	50	64.5	3	7	90	0.00	30.032 
14:35	85.7	85.7	87.4	50	64.9	2	5	112	0.00	30.032 
14:40	85.9	85.9	87.7	50	65.1	2	5	90	0.00	30.032 
14:45	85.7	85.7	87.4	50	64.9	2	7	90	0.00	30.039 
14:50	85.7	85.7	88.0	52	66.0	2	5	112	0.00	30.039 
14:55	85.9	85.9	88.0	51	65.6	2	4	112	0.00	30.039 
15:00	85.9	85.9	87.7	50	65.1	2	4	68	0.00	30.043 
15:05	86.1	86.1	88.0	50	65.3	2	4	90	0.00	30.043 
15:10	86.1	86.1	88.3	51	65.8	2	5	68	0.00	30.043 
15:15	86.1	86.1	88.9	53	66.9	2	5	112	0.00	30.048 
15:20	85.7	85.7	87.7	51	65.5	2	5	90	0.00	30.048 
15:25	85.9	85.9	88.3	52	66.2	1	4	90	0.00	30.048 
15:30	86.3	86.3	88.9	52	66.6	1	4	112	0.00	30.057 
15:35	86.5	86.5	88.9	51	66.2	1	3	112	0.00	30.057 
15:40	86.3	86.3	89.3	53	67.1	2	5	90	0.00	30.057 
15:45	86.5	86.5	91.0	57	69.4	1	3	90	0.00	30.054 
15:50	87.2	87.2	90.8	53	67.9	2	4	90	0.00	30.054 
15:55	87.4	87.4	90.1	50	66.4	2	4	90	0.00	30.054 
16:00	87.4	87.4	90.4	51	67.0	2	4	90	0.00	30.047 
16:05	87.4	87.4	90.4	51	67.0	1	5	112	0.00	30.047 
16:10	87.8	87.8	90.7	50	66.8	1	4	68	0.00	30.047 
16:15	88.0	88.0	91.4	51	67.6	2	5	90	0.00	30.042 
16:20	87.2	87.2	89.7	50	66.3	2	5	90	0.00	30.042 
16:25	87.0	87.0	90.4	53	67.8	2	3	90	0.00	30.042 
16:30	86.7	86.7	89.3	51	66.4	2	4	90	0.00	30.035 
16:35	87.0	87.0	89.1	49	65.5	2	4	112	0.00	30.035 
16:40	86.7	86.7	88.9	50	65.8	3	6	68	0.00	30.035 
16:45	87.0	87.0	89.4	50	66.1	2	4	90	0.00	30.028 
16:50	87.0	87.0	89.7	51	66.6	1	5	90	0.00	30.028 
16:55	86.5	86.5	89.3	52	66.7	2	4	90	0.00	30.028 
17:00	86.3	86.3	88.9	52	66.6	1	3	112	0.00	30.027 
17:05	85.9	85.9	88.9	54	67.3	1	3	112	0.00	30.027 
17:10	85.7	85.7	88.3	53	66.6	1	4	112	0.00	30.027 
17:15	85.9	85.9	88.3	52	66.2	2	4	112	0.00	30.024 
17:20	85.9	85.9	88.9	54	67.3	2	4	90	0.00	30.024 
17:25	86.1	86.1	88.9	53	66.9	1	3	90	0.00	30.024 
17:30	86.3	86.3	88.9	52	66.6	1	3	90	0.00	30.029 
17:35	85.9	85.9	88.3	52	66.2	2	4	90	0.00	30.029 
17:40	85.7	85.7	88.6	54	67.1	1	5	90	0.00	30.029 
17:45	85.9	85.9	89.6	56	68.3	1	3	135	0.00	30.030 
17:50	86.1	86.1	88.9	53	66.9	1	2	135	0.00	30.030 
17:55	86.1	86.1	89.2	54	67.5	1	3	112	0.00	30.030 
18:00	86.1	86.1	89.2	54	67.5	1	3	90	0.00	30.038 
18:05	86.1	86.1	89.2	54	67.5	1	4	90	0.00	30.038 
18:10	86.3	86.3	88.9	52	66.6	1	4	90	0.00	30.038 
18:15	86.1	86.1	89.2	54	67.5	0	3	90	0.00	30.034 
18:20	85.9	85.9	88.9	54	67.3	1	3	90	0.00	30.034 
18:25	85.9	85.9	88.9	54	67.3	1	2	90	0.00	30.034 
18:30	85.9	85.9	88.9	54	67.3	1	3	158	0.00	30.025 
18:35	85.7	85.7	88.9	55	67.6	2	4	112	0.00	30.025 
18:40	85.7	85.7	88.9	55	67.6	1	3	90	0.00	30.025 
18:45	85.5	85.5	88.3	54	66.9	1	2	90	0.00	30.016 
18:50	85.3	85.3	88.0	54	66.7	1	3	90	0.00	30.016 
18:55	85.3	85.3	88.5	56	67.8	0	1	90	0.00	30.016 
19:00	85.5	85.5	88.3	54	66.9	0	1	90	0.00	30.015 
19:05	85.5	85.5	88.3	54	66.9	1	3	90	0.00	30.015 
19:10	85.5	85.5	88.9	56	68.0	1	3	90	0.00	30.015 
19:15	85.3	85.3	88.2	55	67.3	0	2	90	0.00	30.026 
19:20	85.1	85.1	88.5	57	68.1	0	2	90	0.00	30.026 
19:25	85.1	85.1	87.9	55	67.1	0	1	90	0.00	30.026 
19:30	84.9	84.9	87.6	55	66.9	0	2	90	0.00	30.028 
19:35	84.7	84.7	87.9	57	67.7	0	1	90	0.00	30.028 
19:40	84.7	84.7	87.9	57	67.7	0	0	---	0.00	30.028 
19:45	84.5	84.5	87.5	57	67.6	0	1	90	0.00	30.029 
19:50	84.5	84.5	87.5	57	67.6	0	0	---	0.00	30.029 
19:55	84.3	84.3	87.5	58	67.9	0	0	---	0.00	30.029 
20:00	84.0	84.0	87.3	59	68.1	0	1	90	0.00	30.031 
20:05	83.8	83.8	86.9	59	67.9	0	1	90	0.00	30.031 
20:10	83.8	83.8	87.2	60	68.4	0	0	---	0.00	30.031 
20:15	83.6	83.6	86.6	59	67.7	0	0	---	0.00	30.027 
20:20	83.4	83.4	86.5	60	68.0	0	0	---	0.00	30.027 
20:25	83.2	83.2	86.2	60	67.8	0	0	---	0.00	30.027 
20:30	82.8	82.8	85.8	61	67.9	0	0	---	0.00	30.026 
20:35	82.6	82.6	85.5	61	67.8	0	0	---	0.00	30.026 
20:40	82.4	82.4	85.2	61	67.6	0	0	---	0.00	30.026 
20:45	82.2	82.2	85.1	62	67.9	0	0	---	0.00	30.022 
20:50	82.0	82.0	84.8	62	67.7	0	0	---	0.00	30.022 
20:55	81.6	81.6	84.6	64	68.2	0	0	---	0.00	30.022 
21:00	81.2	81.2	84.1	65	68.3	0	0	---	0.00	30.014 
21:05	81.1	81.1	84.1	66	68.6	0	0	---	0.00	30.014 
21:10	80.5	80.5	83.2	66	68.1	0	0	---	0.00	30.014 
21:15	80.1	80.1	82.7	67	68.1	0	0	---	0.00	30.002 
21:20	79.8	79.8	82.5	69	68.7	0	0	---	0.00	30.002 
21:25	79.4	79.4	82.0	70	68.7	0	0	---	0.00	30.002 
21:30	79.0	79.0	81.5	71	68.8	0	0	---	0.00	29.995 
21:35	78.6	78.6	80.9	71	68.4	0	1	90	0.00	29.995 
21:40	78.5	78.5	80.8	72	68.7	0	1	90	0.00	29.995 
21:45	78.3	78.3	80.5	72	68.5	0	1	90	0.00	29.991 
21:50	78.1	78.1	80.3	73	68.7	0	0	---	0.00	29.991 
21:55	77.9	77.9	80.0	73	68.5	0	1	90	0.00	29.991 
22:00	77.7	77.7	79.7	73	68.3	0	1	90	0.00	29.987 
22:05	77.9	77.9	80.0	73	68.5	1	2	90	0.00	29.987 
22:10	77.9	77.9	80.0	73	68.5	0	2	90	0.00	29.987 
22:15	77.9	77.9	79.9	72	68.1	1	2	90	0.00	29.979 
22:20	78.1	78.1	80.2	72	68.3	1	3	90	0.00	29.979 
22:25	78.1	78.1	80.2	72	68.3	1	3	90	0.00	29.979 
22:30	77.9	77.9	79.9	72	68.1	1	3	90	0.00	29.979 
22:35	77.7	77.7	79.7	72	67.9	0	1	90	0.00	29.979 
22:40	77.4	77.4	79.3	72	67.6	0	1	90	0.00	29.979 
22:45	77.2	77.2	79.0	73	67.9	0	0	---	0.00	29.998 
22:50	76.8	76.8	78.5	73	67.5	0	0	---	0.00	29.998 
22:55	76.5	76.5	78.1	74	67.6	0	0	---	0.00	29.998 
23:00	76.3	76.3	77.7	75	67.8	0	0	---	0.00	29.996 
23:05	76.0	76.0	77.3	76	67.9	0	0	---	0.00	29.996 
23:10	75.6	75.6	76.7	77	67.9	0	0	---	0.00	29.996 
23:15	75.3	75.3	76.3	77	67.6	0	0	---	0.00	29.984 
23:20	75.3	75.3	76.1	79	68.3	0	1	90	0.00	29.984 
23:25	75.3	75.3	76.1	79	68.3	0	1	90	0.00	29.984 
23:30	75.3	75.3	76.2	78	68.0	0	2	90	0.00	29.971 
23:35	75.4	75.4	76.3	78	68.0	0	1	90	0.00	29.971 
23:40	75.4	75.4	76.4	77	67.7	0	2	90	0.00	29.971 
23:45	75.6	75.6	76.7	77	67.9	1	3	90	0.00	29.964 
23:50	75.8	75.8	77.0	77	68.1	0	2	112	0.00	29.964 
23:55	75.8	75.8	77.0	77	68.1	0	1	112	0.00	29.964 

CoCoRaHS
IN-AL-39
A2 Web Hosting
Creative Commons License
GoDaddy
Look for:

loaded 2017-10-18 07:35:44 • last modified 2010-11-18 10:43:29
Privacy PolicyDisclaimer
• wx.awcolley.com is powered by PmWiki v.2002016 •
• all content (unless otherwise noted) © 2017 A W Colley